createdAt,value
2023-01-26T00:02:16.527Z,12.70
2023-01-26T00:05:02.143Z,10.70
2023-01-26T00:07:47.488Z,12.17
2023-01-26T00:10:33.050Z,12.07
2023-01-26T00:13:19.852Z,12.90
2023-01-26T00:16:08.677Z,11.10
2023-01-26T00:18:54.491Z,11.77
2023-01-26T00:21:39.996Z,10.60
2023-01-26T00:24:25.304Z,11.80
2023-01-26T00:27:10.869Z,11.77
2023-01-26T00:29:56.284Z,11.77
2023-01-26T00:32:41.809Z,12.77
2023-01-26T00:35:27.304Z,11.87
2023-01-26T00:38:13.589Z,12.37
2023-01-26T00:40:58.865Z,13.03
2023-01-26T00:43:44.314Z,11.67
2023-01-26T00:46:30.222Z,12.50
2023-01-26T00:49:15.350Z,12.90
2023-01-26T00:52:02.090Z,11.53
2023-01-26T00:54:47.447Z,11.57
2023-01-26T00:57:32.672Z,10.27
2023-01-26T01:00:19.657Z,11.23
2023-01-26T01:03:06.450Z,12.00
2023-01-26T01:05:52.211Z,10.90
2023-01-26T01:08:37.870Z,11.60
2023-01-26T01:11:23.735Z,12.53
2023-01-26T01:14:09.939Z,12.37
2023-01-26T01:16:55.580Z,12.07
2023-01-26T01:19:40.921Z,12.10
2023-01-26T01:22:26.470Z,11.80
2023-01-26T01:25:12.327Z,10.67
2023-01-26T01:27:57.823Z,12.47
2023-01-26T01:30:43.650Z,11.20
2023-01-26T01:33:29.047Z,12.07
2023-01-26T01:36:16.510Z,11.73
2023-01-26T01:39:01.949Z,11.50
2023-01-26T01:41:47.626Z,11.63
2023-01-26T01:44:37.810Z,11.30
2023-01-26T01:47:28.514Z,12.27
2023-01-26T01:50:16.434Z,11.87
2023-01-26T01:53:01.952Z,10.97
2023-01-26T01:55:47.631Z,11.13
2023-01-26T01:58:39.386Z,12.60
2023-01-26T02:01:25.000Z,10.37
2023-01-26T02:04:11.463Z,10.67
2023-01-26T02:06:59.136Z,11.23
2023-01-26T02:10:03.902Z,11.43
2023-01-26T02:12:53.179Z,11.82
2023-01-26T02:15:38.742Z,12.23
2023-01-26T02:18:24.521Z,12.10
2023-01-26T02:21:13.949Z,12.30
2023-01-26T02:24:10.221Z,13.10
2023-01-26T02:26:56.376Z,13.37
2023-01-26T02:29:42.031Z,12.80
2023-01-26T02:32:28.354Z,13.33
2023-01-26T02:35:13.943Z,11.90
2023-01-26T02:37:59.331Z,11.77
2023-01-26T02:41:02.419Z,11.27
2023-01-26T02:43:47.817Z,12.17
2023-01-26T02:46:33.440Z,11.70
2023-01-26T02:49:37.648Z,9.90
2023-01-26T02:52:25.991Z,11.03
2023-01-26T02:55:23.161Z,10.37
2023-01-26T02:58:08.414Z,10.07
2023-01-26T03:00:54.149Z,8.40
2023-01-26T03:03:42.263Z,9.37
2023-01-26T03:06:27.834Z,9.43
2023-01-26T03:09:13.759Z,11.53
2023-01-26T03:11:59.434Z,12.73
2023-01-26T03:14:44.805Z,12.67
2023-01-26T03:17:30.394Z,11.90
2023-01-26T03:20:34.569Z,11.07
2023-01-26T03:23:38.242Z,10.57
2023-01-26T03:26:42.683Z,11.17
2023-01-26T03:29:29.370Z,11.85
2023-01-26T03:32:15.261Z,11.83
2023-01-26T03:35:00.882Z,10.37
2023-01-26T03:37:46.548Z,12.63
2023-01-26T03:40:50.280Z,10.63
2023-01-26T03:43:54.263Z,11.50
2023-01-26T03:46:57.953Z,11.03
2023-01-26T03:50:01.866Z,10.97
2023-01-26T03:53:05.623Z,11.90
2023-01-26T03:56:09.276Z,10.70
2023-01-26T03:58:56.780Z,12.00
2023-01-26T04:02:05.530Z,12.23
2023-01-26T04:05:10.492Z,11.97
2023-01-26T04:08:14.293Z,11.32
2023-01-26T04:10:59.434Z,11.27
2023-01-26T04:14:03.469Z,12.77
2023-01-26T04:17:07.157Z,12.57
2023-01-26T04:20:11.109Z,12.03
2023-01-26T04:22:56.782Z,11.73
2023-01-26T04:25:42.635Z,11.47
2023-01-26T04:28:28.038Z,13.03
2023-01-26T04:31:13.648Z,13.13
2023-01-26T04:34:00.620Z,13.03
2023-01-26T04:36:45.940Z,13.10
2023-01-26T04:39:31.234Z,13.13
2023-01-26T04:42:16.830Z,15.10
2023-01-26T04:45:02.556Z,13.40
2023-01-26T04:47:48.233Z,13.40
2023-01-26T04:50:33.695Z,12.80
2023-01-26T04:53:19.294Z,12.77
2023-01-26T04:56:05.055Z,13.23
2023-01-26T04:58:51.575Z,13.20
2023-01-26T05:01:37.347Z,11.97
2023-01-26T05:04:22.912Z,12.90
2023-01-26T05:07:08.235Z,12.80
2023-01-26T05:09:53.657Z,12.57
2023-01-26T05:12:42.716Z,12.73
2023-01-26T05:15:28.434Z,12.93
2023-01-26T05:18:13.728Z,12.27
2023-01-26T05:20:59.507Z,12.57
2023-01-26T05:23:45.330Z,11.50
2023-01-26T05:26:30.603Z,12.47
2023-01-26T05:29:16.094Z,11.80
2023-01-26T05:32:01.915Z,11.43
2023-01-26T05:34:47.343Z,11.83
2023-01-26T05:37:33.789Z,11.30
2023-01-26T05:40:19.436Z,11.07
2023-01-26T05:43:04.815Z,11.30
2023-01-26T05:45:50.406Z,11.87
2023-01-26T05:48:35.933Z,11.40
2023-01-26T05:51:21.355Z,11.20
2023-01-26T05:54:06.935Z,11.33
2023-01-26T05:56:55.382Z,12.07
2023-01-26T05:59:40.811Z,10.57
2023-01-26T06:02:28.995Z,11.27
2023-01-26T06:05:14.218Z,10.40
2023-01-26T06:07:59.515Z,11.27
2023-01-26T06:10:44.619Z,10.93
2023-01-26T06:13:30.347Z,10.87
2023-01-26T06:16:15.969Z,11.70
2023-01-26T06:19:01.424Z,10.77
2023-01-26T06:21:46.921Z,10.87
2023-01-26T06:24:32.315Z,10.97
2023-01-26T06:27:18.758Z,11.07
2023-01-26T06:30:05.511Z,10.93
2023-01-26T06:32:51.228Z,10.87
2023-01-26T06:35:36.478Z,10.53
2023-01-26T06:38:22.419Z,10.23
2023-01-26T06:41:09.361Z,10.63
2023-01-26T06:43:55.059Z,11.00
2023-01-26T06:46:40.474Z,10.47
2023-01-26T06:49:26.070Z,10.50
2023-01-26T06:52:32.101Z,11.17
2023-01-26T06:55:38.514Z,11.40
2023-01-26T06:58:24.381Z,11.47
2023-01-26T07:01:21.680Z,10.33
2023-01-26T07:04:08.227Z,10.97
2023-01-26T07:06:53.780Z,10.17
2023-01-26T07:09:40.005Z,9.77
2023-01-26T07:12:25.565Z,9.87
2023-01-26T07:15:12.481Z,10.33
2023-01-26T07:17:59.202Z,10.53
2023-01-26T07:20:44.449Z,10.77
2023-01-26T07:23:30.523Z,9.63
2023-01-26T07:26:16.617Z,9.87
2023-01-26T07:29:02.297Z,9.47
2023-01-26T07:31:47.756Z,9.60
2023-01-26T07:34:32.989Z,9.33
2023-01-26T07:37:18.695Z,8.97
2023-01-26T07:40:04.377Z,10.53
2023-01-26T07:42:50.045Z,10.03
2023-01-26T07:45:36.683Z,9.47
2023-01-26T07:48:24.479Z,9.80
2023-01-26T07:51:11.237Z,10.33
2023-01-26T07:53:57.522Z,10.53
2023-01-26T07:56:44.226Z,9.50
2023-01-26T07:59:29.851Z,10.13
2023-01-26T08:02:15.389Z,9.83
2023-01-26T08:05:00.994Z,11.03
2023-01-26T08:07:46.176Z,9.83
2023-01-26T08:10:32.068Z,10.00
2023-01-26T08:13:26.630Z,10.13
2023-01-26T08:16:20.025Z,9.70
2023-01-26T08:19:05.365Z,10.00
2023-01-26T08:21:51.905Z,8.87
2023-01-26T08:24:37.469Z,9.93
2023-01-26T08:27:23.282Z,9.57
2023-01-26T08:30:09.918Z,9.90
2023-01-26T08:32:55.342Z,9.87
2023-01-26T08:35:40.651Z,9.80
2023-01-26T08:38:26.322Z,10.90
2023-01-26T08:41:12.421Z,10.20
2023-01-26T08:43:59.418Z,10.87
2023-01-26T08:46:44.987Z,9.83
2023-01-26T08:49:30.183Z,10.17
2023-01-26T08:52:16.774Z,10.67
2023-01-26T08:55:03.351Z,9.73
2023-01-26T08:57:52.670Z,10.80
2023-01-26T09:00:38.341Z,10.83
2023-01-26T09:03:23.836Z,11.70
2023-01-26T09:06:11.014Z,11.23
2023-01-26T09:08:57.538Z,11.10
2023-01-26T09:11:43.362Z,11.10
2023-01-26T09:14:29.065Z,10.93
2023-01-26T09:17:14.529Z,11.03
2023-01-26T09:20:00.255Z,11.87
2023-01-26T09:22:46.123Z,11.20
2023-01-26T09:25:31.638Z,10.57
2023-01-26T09:28:16.993Z,12.13
2023-01-26T09:31:07.103Z,10.60
2023-01-26T09:33:52.739Z,12.33
2023-01-26T09:36:40.538Z,10.73
2023-01-26T09:39:27.139Z,11.67
2023-01-26T09:42:39.387Z,12.63
2023-01-26T09:45:33.709Z,12.43
2023-01-26T09:48:43.947Z,11.60
2023-01-26T09:51:39.761Z,11.37
2023-01-26T09:54:39.667Z,11.07
2023-01-26T09:57:49.347Z,10.90
2023-01-26T10:00:34.672Z,12.17
2023-01-26T10:03:47.378Z,11.40
2023-01-26T10:06:34.048Z,10.47
2023-01-26T10:09:25.245Z,11.20
2023-01-26T10:12:28.634Z,12.13
2023-01-26T10:15:40.008Z,11.73
2023-01-26T10:18:40.994Z,10.90
2023-01-26T10:21:33.523Z,10.23
2023-01-26T10:24:23.784Z,11.40
2023-01-26T10:27:14.072Z,11.97
2023-01-26T10:29:59.725Z,11.43
2023-01-26T10:32:47.718Z,12.00
2023-01-26T10:35:33.129Z,11.40
2023-01-26T10:38:33.992Z,13.80
2023-01-26T10:41:25.467Z,13.43
2023-01-26T10:44:11.770Z,12.33
2023-01-26T10:47:07.022Z,11.97
2023-01-26T10:49:52.464Z,11.50
2023-01-26T10:52:37.780Z,11.20
2023-01-26T10:55:23.300Z,11.83
2023-01-26T10:58:46.835Z,11.60
2023-01-26T11:01:55.673Z,12.77
2023-01-26T11:04:42.206Z,11.40
2023-01-26T11:07:33.329Z,11.60
2023-01-26T11:10:23.798Z,11.43
2023-01-26T11:13:21.253Z,11.60
2023-01-26T11:16:24.287Z,10.93
2023-01-26T11:19:18.345Z,11.70
2023-01-26T11:22:21.563Z,10.53
2023-01-26T11:25:17.633Z,11.13
2023-01-26T11:28:08.935Z,11.17
2023-01-26T11:31:16.244Z,11.00
2023-01-26T11:34:01.988Z,11.53
2023-01-26T11:37:13.323Z,12.17
2023-01-26T11:40:14.586Z,11.47
2023-01-26T11:43:21.428Z,10.53
2023-01-26T11:46:17.585Z,11.10
2023-01-26T11:49:39.990Z,10.43
2023-01-26T11:52:54.440Z,10.63
2023-01-26T11:56:03.157Z,10.65
2023-01-26T11:58:51.949Z,9.80
2023-01-26T12:01:46.336Z,12.10
2023-01-26T12:04:37.952Z,10.18
2023-01-26T12:07:51.507Z,10.30
2023-01-26T12:11:21.880Z,10.67
2023-01-26T12:14:22.696Z,10.83
2023-01-26T12:17:38.592Z,10.83
2023-01-26T12:20:23.848Z,14.43
2023-01-26T12:23:12.105Z,32.50
2023-01-26T12:26:02.920Z,14.07
2023-01-26T12:29:09.556Z,14.43
2023-01-26T12:31:58.976Z,12.27
2023-01-26T12:34:44.595Z,11.40
2023-01-26T12:38:05.681Z,10.90
2023-01-26T12:41:22.783Z,10.50
2023-01-26T12:44:20.613Z,10.80
2023-01-26T12:47:18.554Z,10.10
2023-01-26T12:50:35.599Z,10.80
2023-01-26T12:53:41.896Z,10.73
2023-01-26T12:56:33.075Z,11.03
2023-01-26T12:59:46.925Z,11.50
2023-01-26T13:02:36.081Z,11.70
2023-01-26T13:05:33.862Z,11.10
2023-01-26T13:08:31.635Z,11.13
2023-01-26T13:11:53.615Z,10.03
2023-01-26T13:14:45.263Z,11.40
2023-01-26T13:17:53.771Z,11.80
2023-01-26T13:20:49.048Z,11.57
2023-01-26T13:23:39.773Z,11.43
2023-01-26T13:26:44.243Z,11.57
2023-01-26T13:29:33.365Z,10.85
2023-01-26T13:32:18.625Z,11.97
2023-01-26T13:35:09.750Z,11.80
2023-01-26T13:38:31.553Z,11.70
2023-01-26T13:41:20.975Z,11.00
2023-01-26T13:44:20.647Z,11.63
2023-01-26T13:47:15.622Z,11.67
2023-01-26T13:50:01.225Z,12.30
2023-01-26T13:52:46.878Z,11.70
2023-01-26T13:55:34.028Z,11.53
2023-01-26T13:58:22.393Z,12.50
2023-01-26T14:01:12.643Z,12.00
2023-01-26T14:04:06.773Z,12.73
2023-01-26T14:07:08.860Z,12.40
2023-01-26T14:09:57.009Z,11.03
2023-01-26T14:12:58.859Z,11.70
2023-01-26T14:15:44.244Z,11.87
2023-01-26T14:18:29.682Z,12.70
2023-01-26T14:21:20.532Z,12.13
2023-01-26T14:24:08.917Z,11.47
2023-01-26T14:26:54.891Z,11.70
2023-01-26T14:29:40.486Z,11.83
2023-01-26T14:32:29.529Z,11.70
2023-01-26T14:35:23.424Z,13.13
2023-01-26T14:38:11.725Z,13.13
2023-01-26T14:40:59.827Z,12.27
2023-01-26T14:43:45.081Z,11.73
2023-01-26T14:46:49.105Z,13.33
2023-01-26T14:49:57.894Z,11.35
2023-01-26T14:52:45.281Z,11.73
2023-01-26T14:55:33.942Z,12.50
2023-01-26T14:58:29.454Z,10.77
2023-01-26T15:01:22.405Z,12.47
2023-01-26T15:04:27.471Z,11.87
2023-01-26T15:07:46.387Z,11.03
2023-01-26T15:10:36.751Z,11.13
2023-01-26T15:13:24.843Z,10.70
2023-01-26T15:16:22.061Z,11.30
2023-01-26T15:19:08.028Z,12.30
2023-01-26T15:21:53.657Z,12.33
2023-01-26T15:24:39.100Z,11.60
2023-01-26T15:27:24.380Z,11.50
2023-01-26T15:30:17.326Z,11.00
2023-01-26T15:33:03.458Z,11.27
2023-01-26T15:35:57.920Z,11.23
2023-01-26T15:38:43.395Z,10.65
2023-01-26T15:41:29.770Z,12.60
2023-01-26T15:44:17.540Z,11.93
2023-01-26T15:47:03.072Z,11.43
2023-01-26T15:49:48.719Z,11.97
2023-01-26T15:52:34.247Z,10.53
2023-01-26T15:55:27.387Z,10.93
2023-01-26T15:58:12.622Z,11.47
2023-01-26T16:00:58.207Z,11.07
2023-01-26T16:03:43.590Z,11.93
2023-01-26T16:06:31.278Z,10.50
2023-01-26T16:09:16.562Z,10.83
2023-01-26T16:12:02.194Z,11.63
2023-01-26T16:14:47.588Z,11.60
2023-01-26T16:17:33.247Z,11.23
2023-01-26T16:20:19.264Z,11.87
2023-01-26T16:23:15.222Z,11.17
2023-01-26T16:26:00.950Z,11.57
2023-01-26T16:28:47.105Z,10.97
2023-01-26T16:31:34.736Z,12.07
2023-01-26T16:34:19.952Z,11.40
2023-01-26T16:37:05.356Z,10.43
2023-01-26T16:39:50.887Z,11.00
2023-01-26T16:42:40.431Z,10.67
2023-01-26T16:45:29.537Z,10.60
2023-01-26T16:48:16.308Z,10.27
2023-01-26T16:51:11.770Z,11.37
2023-01-26T16:53:57.849Z,10.07
2023-01-26T16:56:44.304Z,11.13
2023-01-26T16:59:30.055Z,10.40
2023-01-26T17:02:25.565Z,10.13
2023-01-26T17:05:19.464Z,10.47
2023-01-26T17:08:05.436Z,10.50
2023-01-26T17:11:01.574Z,11.43
2023-01-26T17:13:48.486Z,10.77
2023-01-26T17:16:33.873Z,10.20
2023-01-26T17:19:19.115Z,10.20
2023-01-26T17:22:04.579Z,10.77
2023-01-26T17:24:50.097Z,10.10
2023-01-26T17:27:36.596Z,11.00
2023-01-26T17:30:22.240Z,10.83
2023-01-26T17:33:07.729Z,10.27
2023-01-26T17:36:00.951Z,10.10
2023-01-26T17:38:47.937Z,9.23
2023-01-26T17:41:33.525Z,10.20
2023-01-26T17:44:19.526Z,9.67
2023-01-26T17:47:05.115Z,9.63
2023-01-26T17:49:50.616Z,10.13
2023-01-26T17:52:36.573Z,10.07
2023-01-26T17:55:21.701Z,9.57
2023-01-26T17:58:10.932Z,10.27
2023-01-26T18:00:56.418Z,10.27
2023-01-26T18:03:43.044Z,10.40
2023-01-26T18:06:29.737Z,10.27
2023-01-26T18:09:15.336Z,9.67
2023-01-26T18:12:00.681Z,8.80
2023-01-26T18:14:45.992Z,9.40
2023-01-26T18:17:31.238Z,10.77
2023-01-26T18:20:17.684Z,9.80
2023-01-26T18:23:02.989Z,9.70
2023-01-26T18:25:49.293Z,9.47
2023-01-26T18:28:34.709Z,11.47
2023-01-26T18:31:23.199Z,9.47
2023-01-26T18:34:09.918Z,10.33
2023-01-26T18:36:55.581Z,9.07
2023-01-26T18:39:40.895Z,10.33
2023-01-26T18:42:27.113Z,9.40
2023-01-26T18:45:12.919Z,9.03
2023-01-26T18:47:58.454Z,9.20
2023-01-26T18:50:48.764Z,9.13
2023-01-26T18:53:35.397Z,8.40
2023-01-26T18:56:21.036Z,9.50
2023-01-26T18:59:09.509Z,9.27
2023-01-26T19:01:55.482Z,9.30
2023-01-26T19:04:41.873Z,9.77
2023-01-26T19:07:27.245Z,9.53
2023-01-26T19:10:12.810Z,9.17
2023-01-26T19:12:58.266Z,9.60
2023-01-26T19:15:47.660Z,9.00
2023-01-26T19:18:33.413Z,9.13
2023-01-26T19:21:24.465Z,8.53
2023-01-26T19:24:09.772Z,9.03
2023-01-26T19:26:55.539Z,9.10
2023-01-26T19:29:40.791Z,8.70
2023-01-26T19:32:26.302Z,8.20
2023-01-26T19:35:14.397Z,8.07
2023-01-26T19:37:59.722Z,7.77
2023-01-26T19:40:46.897Z,8.17
2023-01-26T19:43:32.321Z,8.77
2023-01-26T19:46:19.086Z,9.30
2023-01-26T19:49:05.029Z,8.43
2023-01-26T19:51:50.290Z,8.47
2023-01-26T19:54:35.792Z,24.20
2023-01-26T19:57:21.327Z,10.53
2023-01-26T20:00:07.546Z,11.20
2023-01-26T20:02:52.948Z,12.17
2023-01-26T20:05:38.890Z,8.80
2023-01-26T20:08:25.724Z,9.50
2023-01-26T20:11:11.557Z,9.87
2023-01-26T20:14:08.544Z,9.07
2023-01-26T20:16:54.209Z,8.43
2023-01-26T20:19:39.433Z,7.10
2023-01-26T20:22:26.014Z,6.80
2023-01-26T20:25:11.906Z,7.10
2023-01-26T20:27:57.596Z,6.73
2023-01-26T20:30:44.992Z,6.37
2023-01-26T20:33:30.657Z,6.60
2023-01-26T20:36:19.078Z,7.10
2023-01-26T20:39:05.473Z,6.73
2023-01-26T20:41:52.072Z,6.73
2023-01-26T20:44:38.384Z,6.17
2023-01-26T20:47:23.963Z,6.90
2023-01-26T20:50:12.959Z,6.83
2023-01-26T20:52:58.579Z,6.17
2023-01-26T20:55:44.147Z,7.10
2023-01-26T20:58:29.682Z,6.70
2023-01-26T21:01:16.773Z,7.33
2023-01-26T21:04:02.556Z,7.27
2023-01-26T21:06:48.117Z,6.90
2023-01-26T21:09:33.386Z,6.27
2023-01-26T21:12:18.614Z,6.63
2023-01-26T21:15:05.800Z,6.93
2023-01-26T21:17:51.184Z,7.03
2023-01-26T21:20:36.347Z,6.73
2023-01-26T21:23:21.549Z,7.27
2023-01-26T21:26:11.451Z,6.80
2023-01-26T21:28:59.796Z,7.07
2023-01-26T21:31:48.992Z,6.20
2023-01-26T21:34:34.609Z,6.13
2023-01-26T21:37:19.891Z,6.30
2023-01-26T21:40:06.334Z,6.70
2023-01-26T21:42:51.616Z,6.67
2023-01-26T21:45:55.976Z,6.43
2023-01-26T21:48:41.250Z,6.17
2023-01-26T21:51:46.030Z,6.70
2023-01-26T21:54:32.486Z,6.35
2023-01-26T21:57:36.176Z,6.20
2023-01-26T22:00:22.026Z,6.67
2023-01-26T22:03:07.329Z,7.67
2023-01-26T22:05:53.578Z,7.37
2023-01-26T22:08:39.046Z,6.30
2023-01-26T22:11:26.072Z,5.83
2023-01-26T22:14:15.620Z,6.67
2023-01-26T22:17:01.091Z,7.03
2023-01-26T22:19:47.191Z,6.07
2023-01-26T22:22:32.415Z,5.40
2023-01-26T22:25:17.764Z,6.13
2023-01-26T22:28:03.554Z,5.87
2023-01-26T22:30:48.764Z,6.00
2023-01-26T22:33:35.180Z,5.77
2023-01-26T22:36:22.422Z,5.83
2023-01-26T22:39:08.363Z,5.40
2023-01-26T22:41:53.710Z,5.73
2023-01-26T22:44:39.256Z,5.90
2023-01-26T22:47:25.235Z,5.87
2023-01-26T22:50:11.461Z,6.07
2023-01-26T22:52:57.470Z,6.13
2023-01-26T22:55:43.795Z,5.77
2023-01-26T22:58:29.267Z,6.17
2023-01-26T23:01:17.176Z,6.20
2023-01-26T23:04:02.518Z,6.20
2023-01-26T23:06:47.773Z,6.20
2023-01-26T23:09:33.414Z,5.90
2023-01-26T23:12:18.973Z,6.67
2023-01-26T23:15:04.653Z,7.00
2023-01-26T23:17:51.904Z,6.23
2023-01-26T23:20:37.240Z,6.30
2023-01-26T23:23:22.987Z,6.30
2023-01-26T23:26:09.616Z,6.50
2023-01-26T23:28:55.074Z,6.80
2023-01-26T23:31:40.504Z,7.17
2023-01-26T23:34:25.970Z,5.90
2023-01-26T23:37:11.593Z,6.53
2023-01-26T23:39:56.947Z,6.50
2023-01-26T23:43:00.327Z,6.43
2023-01-26T23:45:49.596Z,7.03
2023-01-26T23:48:35.177Z,6.73
2023-01-26T23:51:20.751Z,7.30
2023-01-26T23:54:07.250Z,7.57
2023-01-26T23:56:52.712Z,6.70
2023-01-26T23:59:38.294Z,7.57
